createdAt,value
2019-02-23T00:02:16.541Z,100678.86
2019-02-23T00:04:46.146Z,100686.15
2019-02-23T00:07:15.743Z,100689.30
2019-02-23T00:09:45.395Z,100690.98
2019-02-23T00:12:14.994Z,100696.59
2019-02-23T00:14:44.660Z,100704.70
2019-02-23T00:17:14.286Z,100704.12
2019-02-23T00:19:43.784Z,100700.97
2019-02-23T00:22:13.438Z,100703.38
2019-02-23T00:24:43.036Z,100704.86
2019-02-23T00:27:12.638Z,100697.31
2019-02-23T00:29:42.246Z,100694.58
2019-02-23T00:32:11.842Z,100693.60
2019-02-23T00:34:41.425Z,100697.86
2019-02-23T00:37:12.518Z,100695.50
2019-02-23T00:39:42.104Z,100695.12
2019-02-23T00:42:11.690Z,100695.30
2019-02-23T00:44:41.280Z,100697.11
2019-02-23T00:47:10.887Z,100691.67
2019-02-23T00:49:40.472Z,100699.09
2019-02-23T00:52:10.059Z,100705.89
2019-02-23T00:54:39.629Z,100708.48
2019-02-23T00:57:09.234Z,100708.75
2019-02-23T00:59:38.819Z,100708.00
2019-02-23T01:02:08.400Z,100705.20
2019-02-23T01:04:37.994Z,100703.00
2019-02-23T01:07:07.564Z,100707.09
2019-02-23T01:09:37.174Z,100719.39
2019-02-23T01:12:06.982Z,100716.66
2019-02-23T01:14:36.573Z,100711.41
2019-02-23T01:17:06.243Z,100714.73
2019-02-23T01:19:47.049Z,100717.75
2019-02-23T01:22:07.138Z,100710.87
2019-02-23T01:24:37.053Z,100708.49
2019-02-23T01:27:06.600Z,100697.87
2019-02-23T01:29:36.180Z,100703.16
2019-02-23T01:32:05.811Z,100701.00
2019-02-23T01:34:36.876Z,100699.69
2019-02-23T01:37:06.337Z,100697.22
2019-02-23T01:39:35.969Z,100699.34
2019-02-23T01:42:05.902Z,100703.44
2019-02-23T01:44:35.504Z,100706.53
2019-02-23T01:47:05.145Z,100701.55
2019-02-23T01:49:34.698Z,100698.41
2019-02-23T01:52:04.614Z,100695.64
2019-02-23T01:54:34.277Z,100695.97
2019-02-23T01:57:04.017Z,100694.51
2019-02-23T01:59:33.589Z,100694.48
2019-02-23T02:02:03.454Z,100686.71
2019-02-23T02:04:33.077Z,100694.03
2019-02-23T02:07:02.684Z,100696.19
2019-02-23T02:09:41.357Z,100695.56
2019-02-23T02:12:12.533Z,100694.88
2019-02-23T02:14:42.275Z,100693.52
2019-02-23T02:17:12.261Z,100696.80
2019-02-23T02:19:41.836Z,100696.66
2019-02-23T02:22:11.415Z,100691.31
2019-02-23T02:24:41.985Z,100698.67
2019-02-23T02:27:11.714Z,100693.14
2019-02-23T02:29:41.322Z,100692.06
2019-02-23T02:32:10.911Z,100697.44
2019-02-23T02:34:40.509Z,100703.16
2019-02-23T02:37:10.073Z,100701.99
2019-02-23T02:39:39.658Z,100700.21
2019-02-23T02:42:09.258Z,100700.91
2019-02-23T02:44:38.837Z,100705.86
2019-02-23T02:47:08.450Z,100700.25
2019-02-23T02:49:38.026Z,100697.30
2019-02-23T02:52:07.590Z,100693.24
2019-02-23T02:54:56.478Z,100686.07
2019-02-23T02:57:26.046Z,100689.45
2019-02-23T02:59:55.603Z,100683.81
2019-02-23T03:02:25.246Z,100677.67
2019-02-23T03:04:54.800Z,100674.92
2019-02-23T03:07:24.397Z,100684.49
2019-02-23T03:09:54.308Z,100685.80
2019-02-23T03:12:43.146Z,100600.00
2019-02-23T03:15:12.894Z,100688.61
2019-02-23T03:17:42.447Z,100689.08
2019-02-23T03:20:12.092Z,100690.50
2019-02-23T03:22:41.707Z,100688.83
2019-02-23T03:25:11.344Z,100686.63
2019-02-23T03:27:40.952Z,100691.67
2019-02-23T03:30:12.330Z,100690.09
2019-02-23T03:32:41.943Z,100685.31
2019-02-23T03:35:11.493Z,100684.09
2019-02-23T03:37:41.121Z,100681.22
2019-02-23T03:40:11.309Z,100685.50
2019-02-23T03:42:40.894Z,100681.09
2019-02-23T03:45:10.706Z,100681.68
2019-02-23T03:47:40.318Z,100683.32
2019-02-23T03:50:09.932Z,100685.48
2019-02-23T03:52:41.067Z,100690.02
2019-02-23T03:55:10.806Z,100684.85
2019-02-23T03:57:40.402Z,100675.52
2019-02-23T04:00:12.867Z,100678.27
2019-02-23T04:02:42.466Z,100678.05
2019-02-23T04:05:12.231Z,100680.45
2019-02-23T04:07:41.887Z,100675.77
2019-02-23T04:10:11.600Z,100681.23
2019-02-23T04:12:41.205Z,100682.72
2019-02-23T04:15:10.918Z,100678.34
2019-02-23T04:17:40.525Z,100687.17
2019-02-23T04:20:10.278Z,100686.48
2019-02-23T04:22:39.858Z,100685.44
2019-02-23T04:25:15.506Z,100682.06
2019-02-23T04:27:45.486Z,100679.83
2019-02-23T04:30:15.093Z,100675.84
2019-02-23T04:32:44.664Z,100668.88
2019-02-23T04:35:14.462Z,100661.63
2019-02-23T04:37:44.017Z,100660.27
2019-02-23T04:40:13.621Z,100643.95
2019-02-23T04:42:43.187Z,100649.76
2019-02-23T04:45:13.265Z,100649.63
2019-02-23T04:47:42.818Z,100641.73
2019-02-23T04:50:12.895Z,100646.17
2019-02-23T04:52:42.448Z,100649.66
2019-02-23T04:55:12.515Z,100647.05
2019-02-23T04:57:42.106Z,100653.41
2019-02-23T05:00:15.297Z,100654.31
2019-02-23T05:02:44.866Z,100653.55
2019-02-23T05:05:14.503Z,100659.46
2019-02-23T05:07:44.099Z,100659.41
2019-02-23T05:10:14.061Z,100647.95
2019-02-23T05:12:43.643Z,100652.07
2019-02-23T05:15:13.382Z,100647.63
2019-02-23T05:17:42.984Z,100648.09
2019-02-23T05:20:12.592Z,100645.23
2019-02-23T05:22:42.199Z,100636.67
2019-02-23T05:25:11.807Z,100645.58
2019-02-23T05:27:41.488Z,100639.98
2019-02-23T05:30:13.377Z,100638.81
2019-02-23T05:32:43.270Z,100641.36
2019-02-23T05:35:14.506Z,100637.39
2019-02-23T05:37:44.086Z,100646.55
2019-02-23T05:40:14.581Z,100647.11
2019-02-23T05:42:47.279Z,100649.45
2019-02-23T05:45:16.858Z,100653.66
2019-02-23T05:47:46.471Z,100647.92
2019-02-23T05:50:16.084Z,100646.65
2019-02-23T05:52:45.685Z,100645.09
2019-02-23T05:55:15.286Z,100645.38
2019-02-23T05:57:44.887Z,100647.98
2019-02-23T06:00:17.073Z,100650.23
2019-02-23T06:02:46.671Z,100648.21
2019-02-23T06:05:16.376Z,100650.16
2019-02-23T06:07:45.933Z,100657.02
2019-02-23T06:10:15.510Z,100651.24
2019-02-23T06:12:45.090Z,100652.05
2019-02-23T06:15:14.782Z,100652.34
2019-02-23T06:17:44.343Z,100654.11
2019-02-23T06:20:13.930Z,100661.94
2019-02-23T06:22:43.506Z,100657.14
2019-02-23T06:25:13.112Z,100657.02
2019-02-23T06:27:42.890Z,100659.98
2019-02-23T06:30:13.894Z,100661.42
2019-02-23T06:32:49.452Z,100666.41
2019-02-23T06:35:19.050Z,100664.32
2019-02-23T06:37:48.647Z,100669.46
2019-02-23T06:40:18.247Z,100661.11
2019-02-23T06:42:47.811Z,100661.48
2019-02-23T06:45:18.896Z,100667.64
2019-02-23T06:47:48.527Z,100667.86
2019-02-23T06:50:19.599Z,100670.22
2019-02-23T06:52:49.172Z,100670.39
2019-02-23T06:55:18.989Z,100660.27
2019-02-23T06:58:07.861Z,100674.85
2019-02-23T07:00:37.457Z,100674.73
2019-02-23T07:03:07.039Z,100679.52
2019-02-23T07:05:36.670Z,100680.73
2019-02-23T07:08:06.309Z,100674.54
2019-02-23T07:10:35.872Z,100671.13
2019-02-23T07:13:05.479Z,100667.88
2019-02-23T07:15:35.104Z,100666.11
2019-02-23T07:18:07.083Z,100664.45
2019-02-23T07:20:44.128Z,100664.32
2019-02-23T07:23:27.257Z,100667.66
2019-02-23T07:25:56.867Z,100664.16
2019-02-23T07:28:26.430Z,100672.33
2019-02-23T07:30:56.075Z,100661.91
2019-02-23T07:33:32.776Z,100671.00
2019-02-23T07:35:57.003Z,100664.98
2019-02-23T07:38:26.635Z,100674.87
2019-02-23T07:40:56.219Z,100688.54
2019-02-23T07:43:25.786Z,100690.20
2019-02-23T07:45:55.435Z,100694.27
2019-02-23T07:48:25.094Z,100697.02
2019-02-23T07:50:54.687Z,100699.58
2019-02-23T07:53:43.541Z,100606.86
2019-02-23T07:56:13.117Z,100683.47
2019-02-23T07:58:42.723Z,100686.27
2019-02-23T08:01:12.693Z,100702.17
2019-02-23T08:03:42.284Z,100699.78
2019-02-23T08:06:31.174Z,100694.21
2019-02-23T08:09:00.747Z,100702.83
2019-02-23T08:11:30.337Z,100703.25
2019-02-23T08:14:00.540Z,100703.12
2019-02-23T08:16:30.111Z,100695.39
2019-02-23T08:18:59.682Z,100704.36
2019-02-23T08:21:29.318Z,100701.63
2019-02-23T08:23:58.886Z,100694.33
2019-02-23T08:26:28.465Z,100691.59
2019-02-23T08:28:58.204Z,100708.22
2019-02-23T08:31:27.815Z,100708.76
2019-02-23T08:33:57.373Z,100697.18
2019-02-23T08:36:26.973Z,100695.03
2019-02-23T08:38:56.552Z,100684.08
2019-02-23T08:41:26.160Z,100677.17
2019-02-23T08:43:55.766Z,100691.27
2019-02-23T08:46:25.337Z,100685.85
2019-02-23T08:48:54.941Z,100688.77
2019-02-23T08:51:24.550Z,100689.80
2019-02-23T08:53:54.135Z,100688.11
2019-02-23T08:56:23.709Z,100683.19
2019-02-23T08:58:55.100Z,100675.36
2019-02-23T09:01:24.679Z,100668.06
2019-02-23T09:03:57.175Z,100669.92
2019-02-23T09:06:26.772Z,100670.47
2019-02-23T09:08:56.341Z,100664.66
2019-02-23T09:11:25.962Z,100651.98
2019-02-23T09:13:55.570Z,100656.16
2019-02-23T09:16:25.175Z,100664.66
2019-02-23T09:18:54.784Z,100648.61
2019-02-23T09:21:43.671Z,100643.48
2019-02-23T09:24:13.254Z,100646.03
2019-02-23T09:26:42.861Z,100643.00
2019-02-23T09:29:12.846Z,100643.34
2019-02-23T09:31:42.438Z,100647.62
2019-02-23T09:34:12.008Z,100634.88
2019-02-23T09:36:41.635Z,100647.83
2019-02-23T09:39:11.210Z,100661.45
2019-02-23T09:41:40.781Z,100641.25
2019-02-23T09:44:10.389Z,100645.30
2019-02-23T09:46:39.971Z,100640.59
2019-02-23T09:49:09.611Z,100649.31
2019-02-23T09:51:39.327Z,100646.91
2019-02-23T09:54:08.905Z,100648.95
2019-02-23T09:56:38.510Z,100651.55
2019-02-23T09:59:08.140Z,100641.34
2019-02-23T10:01:37.747Z,100654.47
2019-02-23T10:04:07.355Z,100644.78
2019-02-23T10:06:36.958Z,100653.63
2019-02-23T10:09:08.910Z,100656.22
2019-02-23T10:11:38.480Z,100653.92
2019-02-23T10:14:08.113Z,100641.80
2019-02-23T10:16:37.788Z,100644.37
2019-02-23T10:19:07.365Z,100656.75
2019-02-23T10:21:42.647Z,100644.89
2019-02-23T10:24:12.244Z,100641.39
2019-02-23T10:26:41.843Z,100636.77
2019-02-23T10:29:11.541Z,100621.33
2019-02-23T10:31:41.122Z,100631.41
2019-02-23T10:34:10.734Z,100637.30
2019-02-23T10:36:40.358Z,100641.91
2019-02-23T10:39:10.397Z,100624.44
2019-02-23T10:41:40.002Z,100614.88
2019-02-23T10:44:09.609Z,100629.11
2019-02-23T10:46:39.178Z,100618.64
2019-02-23T10:49:08.756Z,100613.30
2019-02-23T10:51:38.376Z,100612.30
2019-02-23T10:54:08.228Z,100616.14
2019-02-23T10:56:37.795Z,100611.41
2019-02-23T10:59:07.609Z,100607.63
2019-02-23T11:01:37.212Z,100602.44
2019-02-23T11:04:06.782Z,100599.37
2019-02-23T11:06:38.459Z,100589.81
2019-02-23T11:09:09.946Z,100588.56
2019-02-23T11:11:39.665Z,100595.70
2019-02-23T11:14:09.350Z,100591.03
2019-02-23T11:16:38.945Z,100584.70
2019-02-23T11:19:08.548Z,100578.78
2019-02-23T11:21:38.151Z,100576.16
2019-02-23T11:24:07.815Z,100560.28
2019-02-23T11:26:56.787Z,100569.10
2019-02-23T11:29:26.549Z,100573.39
2019-02-23T11:31:56.145Z,100566.97
2019-02-23T11:34:25.769Z,100576.30
2019-02-23T11:36:55.340Z,100584.84
2019-02-23T11:39:24.950Z,100588.16
2019-02-23T11:41:54.576Z,100593.79
2019-02-23T11:44:24.151Z,100600.44
2019-02-23T11:47:00.756Z,100597.90
2019-02-23T11:49:44.408Z,100605.09
2019-02-23T11:52:14.038Z,100628.20
2019-02-23T11:54:44.237Z,100597.55
2019-02-23T11:57:13.963Z,100621.73
2019-02-23T11:59:43.570Z,100616.92
2019-02-23T12:02:13.132Z,100617.20
2019-02-23T12:04:42.761Z,100620.27
2019-02-23T12:07:12.336Z,100620.73
2019-02-23T12:09:41.928Z,100617.16
2019-02-23T12:12:11.625Z,100609.70
2019-02-23T12:14:41.216Z,100614.23
2019-02-23T12:17:10.793Z,100602.30
2019-02-23T12:19:40.399Z,100603.33
2019-02-23T12:22:12.547Z,100603.23
2019-02-23T12:24:41.311Z,100613.40
2019-02-23T12:27:30.228Z,100595.05
2019-02-23T12:29:59.858Z,100586.41
2019-02-23T12:32:41.235Z,100596.91
2019-02-23T12:35:11.994Z,100581.61
2019-02-23T12:37:41.593Z,100574.84
2019-02-23T12:40:12.310Z,100566.31
2019-02-23T12:42:41.939Z,100577.83
2019-02-23T12:45:30.857Z,100576.45
2019-02-23T12:48:00.465Z,100579.23
2019-02-23T12:50:30.040Z,100575.39
2019-02-23T12:52:59.925Z,100548.52
2019-02-23T12:55:30.996Z,100551.72
2019-02-23T12:58:00.739Z,100549.80
2019-02-23T13:00:30.346Z,100547.12
2019-02-23T13:03:19.222Z,100543.95
2019-02-23T13:05:48.828Z,100535.50
2019-02-23T13:08:18.441Z,100522.34
2019-02-23T13:10:50.937Z,100519.33
2019-02-23T13:13:25.026Z,100527.83
2019-02-23T13:16:16.853Z,100510.60
2019-02-23T13:19:08.735Z,100525.95
2019-02-23T13:21:42.799Z,100527.89
2019-02-23T13:24:27.517Z,100517.40
2019-02-23T13:26:52.664Z,100510.92
2019-02-23T13:29:26.720Z,100523.96
2019-02-23T13:34:41.230Z,100505.19
2019-02-23T13:39:56.966Z,100514.14
2019-02-23T13:42:48.820Z,100514.41
2019-02-23T13:45:22.907Z,100508.39
2019-02-23T13:48:14.920Z,100506.05
2019-02-23T13:53:25.718Z,100497.37
2019-02-23T13:55:59.738Z,100485.09
2019-02-23T13:58:33.833Z,100488.43
2019-02-23T14:01:07.872Z,100498.02
2019-02-23T14:03:42.274Z,100485.39
2019-02-23T14:06:16.683Z,100481.38
2019-02-23T14:11:33.639Z,100468.45
2019-02-23T14:14:08.054Z,100468.93
2019-02-23T14:17:00.270Z,100469.19
2019-02-23T14:19:34.316Z,100469.14
2019-02-23T14:22:08.767Z,100469.70
2019-02-23T14:24:50.203Z,100472.57
2019-02-23T14:27:18.996Z,100471.13
2019-02-23T14:29:53.021Z,100468.48
2019-02-23T14:32:27.427Z,100469.11
2019-02-23T14:35:01.481Z,100479.48
2019-02-23T14:37:38.159Z,100475.73
2019-02-23T14:40:12.237Z,100484.23
2019-02-23T14:42:46.309Z,100489.89
2019-02-23T14:45:20.343Z,100487.69
2019-02-23T14:47:54.415Z,100482.41
2019-02-23T14:50:28.457Z,100487.50
2019-02-23T14:53:03.263Z,100486.44
2019-02-23T14:55:39.765Z,100476.85
2019-02-23T15:00:49.932Z,100496.21
2019-02-23T15:03:29.678Z,100495.63
2019-02-23T15:06:04.114Z,100490.36
2019-02-23T15:08:38.512Z,100493.22
2019-02-23T15:13:53.468Z,100499.71
2019-02-23T15:16:27.506Z,100492.84
2019-02-23T15:19:01.582Z,100502.10
2019-02-23T15:21:53.451Z,100501.43
2019-02-23T15:24:27.543Z,100501.63
2019-02-23T15:27:01.595Z,100500.70
2019-02-23T15:29:35.806Z,100506.09
2019-02-23T15:32:13.286Z,100497.66
2019-02-23T15:34:47.377Z,100505.54
2019-02-23T15:37:21.404Z,100503.03
2019-02-23T15:39:55.465Z,100502.02
2019-02-23T15:42:29.648Z,100510.56
2019-02-23T15:45:04.055Z,100513.50
2019-02-23T15:47:38.097Z,100514.61
2019-02-23T15:50:13.934Z,100513.34
2019-02-23T15:52:40.198Z,100506.70
2019-02-23T15:55:09.745Z,100509.84
2019-02-23T15:57:39.344Z,100515.17
2019-02-23T16:00:09.897Z,100510.38
2019-02-23T16:02:39.623Z,100510.86
2019-02-23T16:05:10.594Z,100506.77
2019-02-23T16:07:40.272Z,100494.51
2019-02-23T16:10:29.146Z,100507.38
2019-02-23T16:12:58.740Z,100510.47
2019-02-23T16:15:28.342Z,100507.31
2019-02-23T16:17:57.940Z,100503.27
2019-02-23T16:20:27.528Z,100508.50
2019-02-23T16:22:57.093Z,100505.41
2019-02-23T16:25:37.763Z,100507.76
2019-02-23T16:28:07.133Z,100505.00
2019-02-23T16:30:36.731Z,100511.28
2019-02-23T16:33:06.323Z,100504.31
2019-02-23T16:35:35.930Z,100520.49
2019-02-23T16:38:05.515Z,100514.36
2019-02-23T16:40:35.074Z,100520.50
2019-02-23T16:43:04.645Z,100514.45
2019-02-23T16:45:34.405Z,100518.89
2019-02-23T16:48:04.118Z,100524.14
2019-02-23T16:50:33.780Z,100528.98
2019-02-23T16:53:03.363Z,100529.91
2019-02-23T16:55:32.920Z,100527.72
2019-02-23T16:58:02.546Z,100529.72
2019-02-23T17:00:32.110Z,100533.52
2019-02-23T17:03:01.710Z,100525.25
2019-02-23T17:05:31.533Z,100525.29
2019-02-23T17:08:01.114Z,100525.02
2019-02-23T17:10:30.722Z,100524.70
2019-02-23T17:13:00.350Z,100520.94
2019-02-23T17:15:30.010Z,100523.05
2019-02-23T17:17:59.613Z,100522.70
2019-02-23T17:20:29.174Z,100527.94
2019-02-23T17:23:01.921Z,100530.49
2019-02-23T17:25:30.079Z,100529.55
2019-02-23T17:27:59.687Z,100535.09
2019-02-23T17:30:29.259Z,100535.73
2019-02-23T17:32:58.849Z,100538.69
2019-02-23T17:35:28.457Z,100536.01
2019-02-23T17:38:01.714Z,100542.28
2019-02-23T17:40:31.406Z,100536.45
2019-02-23T17:43:02.528Z,100543.55
2019-02-23T17:45:32.076Z,100546.20
2019-02-23T17:48:01.642Z,100550.80
2019-02-23T17:50:31.279Z,100544.79
2019-02-23T17:53:00.877Z,100545.78
2019-02-23T17:55:30.441Z,100554.56
2019-02-23T17:58:19.370Z,100558.25
2019-02-23T18:00:48.905Z,100551.98
2019-02-23T18:03:18.526Z,100558.30
2019-02-23T18:05:48.130Z,100561.20
2019-02-23T18:08:36.981Z,100566.67
2019-02-23T18:11:06.577Z,100562.59
2019-02-23T18:13:36.189Z,100565.45
2019-02-23T18:16:06.753Z,100571.55
2019-02-23T18:18:36.546Z,100580.94
2019-02-23T18:21:06.097Z,100577.93
2019-02-23T18:23:35.702Z,100575.95
2019-02-23T18:26:05.312Z,100577.07
2019-02-23T18:28:34.854Z,100578.55
2019-02-23T18:31:13.146Z,100581.00
2019-02-23T18:33:42.734Z,100584.83
2019-02-23T18:36:12.288Z,100587.58
2019-02-23T18:38:41.906Z,100589.00
2019-02-23T18:41:11.478Z,100585.81
2019-02-23T18:43:41.103Z,100581.10
2019-02-23T18:46:10.884Z,100584.95
2019-02-23T18:48:41.616Z,100580.22
2019-02-23T18:51:11.198Z,100578.80
2019-02-23T18:53:40.770Z,100583.30
2019-02-23T18:56:29.458Z,100580.92
2019-02-23T18:58:53.432Z,100578.33
2019-02-23T19:01:23.019Z,100575.40
2019-02-23T19:03:52.603Z,100572.53
2019-02-23T19:06:22.232Z,100576.91
2019-02-23T19:08:51.822Z,100572.80
2019-02-23T19:11:22.028Z,100576.42
2019-02-23T19:13:51.634Z,100577.55
2019-02-23T19:16:23.295Z,100572.80
2019-02-23T19:18:52.710Z,100575.02
2019-02-23T19:21:41.603Z,100574.19
2019-02-23T19:24:11.365Z,100581.45
2019-02-23T19:26:40.941Z,100575.40
2019-02-23T19:29:29.853Z,100570.60
2019-02-23T19:31:59.470Z,100573.09
2019-02-23T19:34:29.026Z,100574.47
2019-02-23T19:36:58.608Z,100574.84
2019-02-23T19:39:28.188Z,100580.13
2019-02-23T19:41:57.796Z,100578.20
2019-02-23T19:44:27.355Z,100582.16
2019-02-23T19:46:58.946Z,100590.44
2019-02-23T19:49:28.514Z,100588.00
2019-02-23T19:51:58.133Z,100593.16
2019-02-23T19:54:27.721Z,100587.34
2019-02-23T19:56:57.288Z,100591.67
2019-02-23T19:59:26.883Z,100594.83
2019-02-23T20:01:56.465Z,100590.61
2019-02-23T20:04:26.066Z,100595.66
2019-02-23T20:06:55.659Z,100591.16
2019-02-23T20:09:25.261Z,100598.38
2019-02-23T20:11:54.832Z,100598.40
2019-02-23T20:14:24.474Z,100596.31
2019-02-23T20:16:54.038Z,100596.78
2019-02-23T20:19:23.634Z,100603.30
2019-02-23T20:22:12.514Z,100594.83
2019-02-23T20:24:42.095Z,100592.42
2019-02-23T20:27:11.666Z,100592.78
2019-02-23T20:29:41.318Z,100598.92
2019-02-23T20:32:10.876Z,100595.85
2019-02-23T20:34:40.463Z,100594.19
2019-02-23T20:37:10.067Z,100590.45
2019-02-23T20:39:39.658Z,100584.77
2019-02-23T20:42:28.562Z,100585.88
2019-02-23T20:44:58.168Z,100573.56
2019-02-23T20:47:27.750Z,100581.02
2019-02-23T20:49:57.330Z,100586.45
2019-02-23T20:52:48.862Z,100586.80
2019-02-23T20:55:18.458Z,100587.10
2019-02-23T20:57:48.055Z,100584.77
2019-02-23T21:00:17.681Z,100588.54
2019-02-23T21:02:47.746Z,100583.44
2019-02-23T21:05:20.169Z,100585.55
2019-02-23T21:07:49.932Z,100584.12
2019-02-23T21:10:19.540Z,100588.11
2019-02-23T21:12:49.090Z,100587.67
2019-02-23T21:15:18.896Z,100591.59
2019-02-23T21:17:48.526Z,100593.22
2019-02-23T21:20:18.109Z,100594.92
2019-02-23T21:22:47.659Z,100591.80
2019-02-23T21:25:17.288Z,100596.90
2019-02-23T21:27:46.886Z,100599.22
2019-02-23T21:30:16.444Z,100596.86
2019-02-23T21:32:48.892Z,100598.97
2019-02-23T21:35:18.501Z,100602.28
2019-02-23T21:37:49.679Z,100607.56
2019-02-23T21:40:38.545Z,100601.43
2019-02-23T21:43:08.127Z,100596.05
2019-02-23T21:45:37.685Z,100600.48
2019-02-23T21:48:07.312Z,100603.30
2019-02-23T21:50:36.947Z,100598.12
2019-02-23T21:53:06.509Z,100599.25
2019-02-23T21:55:36.102Z,100596.78
2019-02-23T21:58:05.699Z,100590.52
2019-02-23T22:00:35.300Z,100597.06
2019-02-23T22:03:07.027Z,100600.94
2019-02-23T22:05:36.235Z,100595.98
2019-02-23T22:08:05.834Z,100598.96
2019-02-23T22:10:35.433Z,100599.95
2019-02-23T22:13:05.034Z,100600.05
2019-02-23T22:15:34.602Z,100596.13
2019-02-23T22:18:04.479Z,100596.94
2019-02-23T22:20:34.042Z,100608.83
2019-02-23T22:23:03.612Z,100600.09
2019-02-23T22:25:33.204Z,100596.96
2019-02-23T22:28:02.807Z,100596.06
2019-02-23T22:30:32.385Z,100600.68
2019-02-23T22:33:01.993Z,100604.00
2019-02-23T22:35:31.578Z,100602.84
2019-02-23T22:38:01.167Z,100605.50
2019-02-23T22:40:30.775Z,100607.13
2019-02-23T22:43:00.362Z,100605.55
2019-02-23T22:45:49.260Z,100598.06
2019-02-23T22:48:18.821Z,100597.72
2019-02-23T22:50:48.438Z,100598.36
2019-02-23T22:53:18.077Z,100603.05
2019-02-23T22:55:47.642Z,100600.70
2019-02-23T22:58:36.558Z,100604.09
2019-02-23T23:01:07.397Z,100606.95
2019-02-23T23:03:37.385Z,100602.00
2019-02-23T23:06:06.966Z,100602.13
2019-02-23T23:08:36.547Z,100602.00
2019-02-23T23:11:06.278Z,100607.57
2019-02-23T23:13:35.883Z,100605.95
2019-02-23T23:16:05.539Z,100606.47
2019-02-23T23:18:36.084Z,100606.41
2019-02-23T23:21:05.730Z,100605.77
2019-02-23T23:23:35.469Z,100604.13
2019-02-23T23:26:05.089Z,100602.28
2019-02-23T23:28:34.665Z,100605.89
2019-02-23T23:31:04.243Z,100607.98
2019-02-23T23:33:33.914Z,100609.97
2019-02-23T23:36:03.523Z,100610.62
2019-02-23T23:38:33.116Z,100610.83
2019-02-23T23:41:02.671Z,100609.42
2019-02-23T23:43:32.263Z,100608.89
2019-02-23T23:46:01.885Z,100602.73
2019-02-23T23:48:31.484Z,100598.22
2019-02-23T23:51:01.444Z,100594.37
2019-02-23T23:53:31.018Z,100592.72
2019-02-23T23:56:00.594Z,100589.94
2019-02-23T23:58:30.250Z,100590.16
